首页
METAR-TAF:

METAR-TAF

机场 :

聖弗朗西斯, 堪薩斯州, 美国

纬度: 39-45-40N, 经度: 101-47-45W, 海拔: 1040米

当前天气观测

该预报发布于42分钟前的06:15 UTC
风速7节,风向南转南东,在东转东南之间变化
温度 22°C
湿度 46%
气压 1012 hPa
能見度: 16.1公里
天空无云

METAR: KSYF 130615Z AUTO 15007KT 120V180 10SM CLR 22/10 A2989 RMK AO2

时间: 01:57 (06:57 UTC)


TAF: 丢失

超过4000个机场的气象观测和天气预报(METAR&TAF报告)。

可查询的气象台以黄色和红色小点在地图上表示。

将鼠标移到小点上方,可查看气象台名称。

然后点击查看天气观测和预报。

如需切换地图:点击带黑十字的绿色按钮放大地图;点击带横线的绿色按钮缩小地图;或者点击绿色箭头查看邻近地区的地图。


METAR-TAF: